createdAt,value
2018-11-26T00:00:02.913Z,6.93
2018-11-26T00:03:12.402Z,10.73
2018-11-26T00:06:17.455Z,10.73
2018-11-26T00:09:22.140Z,9.27
2018-11-26T00:12:26.762Z,7.70
2018-11-26T00:15:32.239Z,8.77
2018-11-26T00:18:39.593Z,9.63
2018-11-26T00:21:43.876Z,6.20
2018-11-26T00:24:48.167Z,7.50
2018-11-26T00:27:52.433Z,9.87
2018-11-26T00:30:57.141Z,7.03
2018-11-26T00:34:01.464Z,6.37
2018-11-26T00:37:05.837Z,9.93
2018-11-26T00:40:11.817Z,6.17
2018-11-26T00:43:16.093Z,6.60
2018-11-26T00:46:20.831Z,9.07
2018-11-26T00:49:25.961Z,6.90
2018-11-26T00:52:30.599Z,8.77
2018-11-26T00:55:35.125Z,8.30
2018-11-26T00:58:39.421Z,6.57
2018-11-26T01:01:43.978Z,7.80
2018-11-26T01:04:48.456Z,8.87
2018-11-26T01:07:53.784Z,5.23
2018-11-26T01:10:58.111Z,4.53
2018-11-26T01:14:02.411Z,8.00
2018-11-26T01:17:08.384Z,9.00
2018-11-26T01:20:14.559Z,7.40
2018-11-26T01:23:39.021Z,7.77
2018-11-26T01:26:58.812Z,8.47
2018-11-26T01:30:03.662Z,9.33
2018-11-26T01:33:08.047Z,6.23
2018-11-26T01:36:12.316Z,5.17
2018-11-26T01:39:16.971Z,6.93
2018-11-26T01:42:21.290Z,6.50
2018-11-26T01:45:25.629Z,7.20
2018-11-26T01:48:30.029Z,5.53
2018-11-26T01:51:34.311Z,7.53
2018-11-26T01:54:38.628Z,11.33
2018-11-26T01:57:42.963Z,4.67
2018-11-26T02:00:47.280Z,7.27
2018-11-26T02:03:51.620Z,6.00
2018-11-26T02:06:55.941Z,6.27
2018-11-26T02:10:00.264Z,6.60
2018-11-26T02:13:04.658Z,7.63
2018-11-26T02:16:09.038Z,8.80
2018-11-26T02:19:13.325Z,7.70
2018-11-26T02:22:18.094Z,10.23
2018-11-26T02:25:22.522Z,10.53
2018-11-26T02:28:26.870Z,8.43
2018-11-26T02:31:31.209Z,12.10
2018-11-26T02:34:35.489Z,7.77
2018-11-26T02:37:39.798Z,10.67
2018-11-26T02:40:44.072Z,11.17
2018-11-26T02:43:48.432Z,11.30
2018-11-26T02:46:54.262Z,9.53
2018-11-26T02:50:00.984Z,11.00
2018-11-26T02:53:06.015Z,12.33
2018-11-26T02:56:10.428Z,7.63
2018-11-26T02:59:14.838Z,24.30
2018-11-26T03:02:19.102Z,9.53
2018-11-26T03:05:29.511Z,9.10
2018-11-26T03:08:35.602Z,7.57
2018-11-26T03:11:39.986Z,9.50
2018-11-26T03:14:44.892Z,9.13
2018-11-26T03:17:49.199Z,7.07
2018-11-26T03:20:53.448Z,8.80
2018-11-26T03:23:57.781Z,11.10
2018-11-26T03:27:02.465Z,10.53
2018-11-26T03:30:17.954Z,10.40
2018-11-26T03:33:22.241Z,8.77
2018-11-26T03:36:26.514Z,11.17
2018-11-26T03:39:31.349Z,9.23
2018-11-26T03:42:37.297Z,10.40
2018-11-26T03:45:42.625Z,10.47
2018-11-26T03:48:47.343Z,11.70
2018-11-26T03:51:51.612Z,10.10
2018-11-26T03:54:55.912Z,10.53
2018-11-26T03:58:00.202Z,10.33
2018-11-26T04:01:04.641Z,10.17
2018-11-26T04:04:08.905Z,10.80
2018-11-26T04:07:13.177Z,12.70
2018-11-26T04:10:17.466Z,10.13
2018-11-26T04:13:21.775Z,10.23
2018-11-26T04:16:26.618Z,10.97
2018-11-26T04:19:30.895Z,11.70
2018-11-26T04:22:35.210Z,13.10
2018-11-26T04:25:40.694Z,12.33
2018-11-26T04:28:45.090Z,11.40
2018-11-26T04:31:49.381Z,12.57
2018-11-26T04:34:53.718Z,13.13
2018-11-26T04:37:58.056Z,11.50
2018-11-26T04:41:03.863Z,14.13
2018-11-26T04:44:08.179Z,10.50
2018-11-26T04:47:12.514Z,11.13
2018-11-26T04:50:16.857Z,13.10
2018-11-26T04:53:21.146Z,9.57
2018-11-26T04:56:25.514Z,11.50
2018-11-26T04:59:30.474Z,13.43
2018-11-26T05:02:36.481Z,12.23
2018-11-26T05:05:42.020Z,14.70
2018-11-26T05:08:46.361Z,12.03
2018-11-26T05:11:50.631Z,11.10
2018-11-26T05:14:54.909Z,14.00
2018-11-26T05:18:00.290Z,10.77
2018-11-26T05:21:04.684Z,13.17
2018-11-26T05:24:09.150Z,13.67
2018-11-26T05:27:13.360Z,12.40
2018-11-26T05:30:17.674Z,13.70
2018-11-26T05:33:22.070Z,13.87
2018-11-26T05:36:26.414Z,15.33
2018-11-26T05:39:30.752Z,13.13
2018-11-26T05:42:35.045Z,14.63
2018-11-26T05:45:41.063Z,11.70
2018-11-26T05:48:45.429Z,14.30
2018-11-26T05:51:49.926Z,10.80
2018-11-26T05:54:54.204Z,10.83
2018-11-26T05:58:00.201Z,11.93
2018-11-26T06:01:05.129Z,14.37
2018-11-26T06:04:09.769Z,13.53
2018-11-26T06:07:14.174Z,11.73
2018-11-26T06:10:18.560Z,9.23
2018-11-26T06:13:22.852Z,11.17
2018-11-26T06:16:27.300Z,14.87
2018-11-26T06:19:31.621Z,11.37
2018-11-26T06:22:36.004Z,17.17
2018-11-26T06:25:40.441Z,10.57
2018-11-26T06:28:44.852Z,11.03
2018-11-26T06:31:50.455Z,12.17
2018-11-26T06:34:54.873Z,16.93
2018-11-26T06:37:59.161Z,13.27
2018-11-26T06:41:03.477Z,14.37
2018-11-26T06:44:08.220Z,11.67
2018-11-26T06:47:12.601Z,12.43
2018-11-26T06:50:19.990Z,13.80
2018-11-26T06:53:24.905Z,11.07
2018-11-26T06:56:29.249Z,19.40
2018-11-26T06:59:33.621Z,14.30
2018-11-26T07:02:38.791Z,14.10
2018-11-26T07:05:43.205Z,12.67
2018-11-26T07:08:47.524Z,14.67
2018-11-26T07:11:52.333Z,17.63
2018-11-26T07:14:56.748Z,17.40
2018-11-26T07:18:01.058Z,15.87
2018-11-26T07:21:06.529Z,11.93
2018-11-26T07:24:10.801Z,19.00
2018-11-26T07:27:15.350Z,11.23
2018-11-26T07:30:24.125Z,12.37
2018-11-26T07:33:28.550Z,14.23
2018-11-26T07:36:33.536Z,13.37
2018-11-26T07:39:37.887Z,10.83
2018-11-26T07:42:46.433Z,16.67
2018-11-26T07:45:50.769Z,16.00
2018-11-26T07:48:55.054Z,16.63
2018-11-26T07:51:59.352Z,16.87
2018-11-26T07:55:04.538Z,12.20
2018-11-26T07:58:09.119Z,13.43
2018-11-26T08:01:13.850Z,16.90
2018-11-26T08:04:18.106Z,13.20
2018-11-26T08:07:22.388Z,13.30
2018-11-26T08:10:26.720Z,12.60
2018-11-26T08:13:31.038Z,11.70
2018-11-26T08:16:36.483Z,10.90
2018-11-26T08:19:40.758Z,14.00
2018-11-26T08:22:45.247Z,11.97
2018-11-26T08:25:49.582Z,9.10
2018-11-26T08:28:53.867Z,10.53
2018-11-26T08:31:58.130Z,11.10
2018-11-26T08:35:02.680Z,9.27
2018-11-26T08:38:18.360Z,8.10
2018-11-26T08:41:26.719Z,10.87
2018-11-26T08:44:36.426Z,6.97
2018-11-26T08:47:44.124Z,9.87
2018-11-26T08:50:48.979Z,9.03
2018-11-26T08:53:53.740Z,8.57
2018-11-26T08:57:03.168Z,6.77
2018-11-26T09:00:14.196Z,11.53
2018-11-26T09:03:23.229Z,8.03
2018-11-26T09:06:31.827Z,6.87
2018-11-26T09:09:40.523Z,6.83
2018-11-26T09:12:49.499Z,7.20
2018-11-26T09:15:56.080Z,5.73
2018-11-26T09:19:01.487Z,8.50
2018-11-26T09:22:09.267Z,5.83
2018-11-26T09:25:14.883Z,7.80
2018-11-26T09:28:19.727Z,9.93
2018-11-26T09:31:24.289Z,7.23
2018-11-26T09:37:58.804Z,7.50
2018-11-26T09:41:03.517Z,7.10
2018-11-26T09:44:08.460Z,8.57
2018-11-26T09:47:12.963Z,6.03
2018-11-26T09:50:22.018Z,6.70
2018-11-26T09:53:26.350Z,8.80
2018-11-26T09:56:31.150Z,8.57
2018-11-26T09:59:35.665Z,7.17
2018-11-26T10:02:43.436Z,8.10
2018-11-26T10:05:47.830Z,6.90
2018-11-26T10:08:52.451Z,5.80
2018-11-26T10:12:05.180Z,7.33
2018-11-26T10:15:18.421Z,6.63
2018-11-26T10:18:22.991Z,6.03
2018-11-26T10:21:27.356Z,9.07
2018-11-26T10:24:32.687Z,6.03
2018-11-26T10:27:37.005Z,8.40
2018-11-26T10:30:41.940Z,7.87
2018-11-26T10:33:49.521Z,8.83
2018-11-26T10:36:53.985Z,8.83
2018-11-26T10:39:58.266Z,6.97
2018-11-26T10:43:03.673Z,6.17
2018-11-26T10:46:08.513Z,8.77
2018-11-26T10:49:12.912Z,6.77
2018-11-26T10:52:17.575Z,8.93
2018-11-26T10:55:24.103Z,7.63
2018-11-26T10:58:28.445Z,7.67
2018-11-26T11:01:44.451Z,6.90
2018-11-26T11:04:49.075Z,7.20
2018-11-26T11:07:53.323Z,6.67
2018-11-26T11:11:00.150Z,5.93
2018-11-26T11:14:04.511Z,6.97
2018-11-26T11:17:08.490Z,7.97
2018-11-26T11:20:20.401Z,6.83
2018-11-26T11:23:24.961Z,6.07
2018-11-26T11:26:29.382Z,5.53
2018-11-26T11:29:33.693Z,5.40
2018-11-26T11:32:38.164Z,7.10
2018-11-26T11:35:42.434Z,5.77
2018-11-26T11:38:46.981Z,7.27
2018-11-26T11:41:52.399Z,6.20
2018-11-26T11:45:00.235Z,4.43
2018-11-26T11:48:04.554Z,5.77
2018-11-26T11:51:09.071Z,5.27
2018-11-26T11:54:15.239Z,8.33
2018-11-26T11:57:19.613Z,4.20
2018-11-26T12:00:32.017Z,7.03
2018-11-26T12:03:36.481Z,5.60
2018-11-26T12:06:41.108Z,6.43
2018-11-26T12:09:45.466Z,5.23
2018-11-26T12:12:49.846Z,4.37
2018-11-26T12:15:54.326Z,4.90
2018-11-26T12:18:58.621Z,4.23
2018-11-26T12:22:03.013Z,4.60
2018-11-26T12:25:13.307Z,5.90
2018-11-26T12:28:17.604Z,7.13
2018-11-26T12:31:22.686Z,5.63
2018-11-26T12:34:27.026Z,3.87
2018-11-26T12:40:53.913Z,5.07
2018-11-26T12:43:58.311Z,5.00
2018-11-26T12:47:02.616Z,5.33
2018-11-26T12:50:07.400Z,5.03
2018-11-26T12:53:13.203Z,7.07
2018-11-26T12:56:17.474Z,6.53
2018-11-26T12:59:21.744Z,4.97
2018-11-26T13:02:26.045Z,9.50
2018-11-26T13:05:30.353Z,4.87
2018-11-26T13:08:34.710Z,5.20
2018-11-26T13:11:38.989Z,5.03
2018-11-26T13:14:45.017Z,3.87
2018-11-26T13:17:49.334Z,4.67
2018-11-26T13:20:53.649Z,5.80
2018-11-26T13:23:57.944Z,4.00
2018-11-26T13:27:02.244Z,4.50
2018-11-26T13:30:13.313Z,3.63
2018-11-26T13:33:19.336Z,3.70
2018-11-26T13:36:23.607Z,5.33
2018-11-26T13:39:27.920Z,3.87
2018-11-26T13:42:32.548Z,2.53
2018-11-26T13:45:39.206Z,6.50
2018-11-26T13:48:43.529Z,4.33
2018-11-26T13:51:47.895Z,3.33
2018-11-26T13:54:52.235Z,4.50
2018-11-26T13:57:56.525Z,6.83
2018-11-26T14:01:00.857Z,4.03
2018-11-26T14:04:05.793Z,5.20
2018-11-26T14:07:10.664Z,2.80
2018-11-26T14:10:22.669Z,5.30
2018-11-26T14:13:27.064Z,4.23
2018-11-26T14:16:31.458Z,5.17
2018-11-26T14:19:36.671Z,9.47
2018-11-26T14:22:41.048Z,4.00
2018-11-26T14:25:45.481Z,2.87
2018-11-26T14:28:49.820Z,3.37
2018-11-26T14:31:54.199Z,4.73
2018-11-26T14:34:58.591Z,3.40
2018-11-26T14:38:06.939Z,3.73
2018-11-26T14:41:11.251Z,4.67
2018-11-26T14:44:15.613Z,4.63
2018-11-26T14:47:20.705Z,3.00
2018-11-26T14:50:25.393Z,4.90
2018-11-26T14:53:29.688Z,4.17
2018-11-26T14:56:34.084Z,6.67
2018-11-26T14:59:38.392Z,5.43
2018-11-26T15:02:43.689Z,4.13
2018-11-26T15:05:47.159Z,3.87
2018-11-26T15:08:51.466Z,3.07
2018-11-26T15:11:55.840Z,3.20
2018-11-26T15:15:02.916Z,4.00
2018-11-26T15:18:07.311Z,2.93
2018-11-26T15:21:11.752Z,2.90
2018-11-26T15:24:16.210Z,4.57
2018-11-26T15:27:20.506Z,4.73
2018-11-26T15:30:26.716Z,5.87
2018-11-26T15:33:31.174Z,4.77
2018-11-26T15:36:35.761Z,3.70
2018-11-26T15:39:39.929Z,3.67
2018-11-26T15:42:44.239Z,3.17
2018-11-26T15:45:48.675Z,6.23
2018-11-26T15:48:53.191Z,3.40
2018-11-26T15:51:57.543Z,3.60
2018-11-26T15:55:01.988Z,5.27
2018-11-26T15:58:07.703Z,3.90
2018-11-26T16:01:12.504Z,2.47
2018-11-26T16:04:18.108Z,3.77
2018-11-26T16:07:22.591Z,4.57
2018-11-26T16:10:26.951Z,5.60
2018-11-26T16:13:31.400Z,5.70
2018-11-26T16:16:36.208Z,5.10
2018-11-26T16:19:40.791Z,7.17
2018-11-26T16:22:45.199Z,6.47
2018-11-26T16:25:50.929Z,6.20
2018-11-26T16:28:55.337Z,7.67
2018-11-26T16:31:59.759Z,5.47
2018-11-26T16:35:04.268Z,8.40
2018-11-26T16:38:10.283Z,7.87
2018-11-26T16:41:14.761Z,5.13
2018-11-26T16:44:19.469Z,2.03
2018-11-26T16:47:35.928Z,2.53
2018-11-26T16:50:40.268Z,2.47
2018-11-26T16:53:44.879Z,5.10
2018-11-26T16:56:49.321Z,3.50
2018-11-26T16:59:53.930Z,3.87
2018-11-26T17:03:00.088Z,5.03
2018-11-26T17:06:07.173Z,3.03
2018-11-26T17:09:21.306Z,3.83
2018-11-26T17:12:26.659Z,3.17
2018-11-26T17:15:31.098Z,4.70
2018-11-26T17:18:35.420Z,2.97
2018-11-26T17:21:39.800Z,2.80
2018-11-26T17:24:44.216Z,2.83
2018-11-26T17:27:49.017Z,4.10
2018-11-26T17:30:54.640Z,5.40
2018-11-26T17:33:59.091Z,5.20
2018-11-26T17:37:03.493Z,4.10
2018-11-26T17:40:14.162Z,3.40
2018-11-26T17:43:20.610Z,5.93
2018-11-26T17:46:25.082Z,3.80
2018-11-26T17:49:29.470Z,4.17
2018-11-26T17:52:34.027Z,4.47
2018-11-26T17:55:50.500Z,4.73
2018-11-26T17:58:54.811Z,6.30
2018-11-26T18:01:59.477Z,3.40
2018-11-26T18:05:03.906Z,3.00
2018-11-26T18:08:10.920Z,4.70
2018-11-26T18:11:15.530Z,5.03
2018-11-26T18:14:20.023Z,5.33
2018-11-26T18:17:24.368Z,6.87
2018-11-26T18:20:29.129Z,2.50
2018-11-26T18:23:33.486Z,2.83
2018-11-26T18:26:37.883Z,4.87
2018-11-26T18:29:42.450Z,9.97
2018-11-26T18:32:46.927Z,4.23
2018-11-26T18:35:51.396Z,9.57
2018-11-26T18:38:55.689Z,3.60
2018-11-26T18:42:00.133Z,4.70
2018-11-26T18:45:04.880Z,3.40
2018-11-26T18:48:10.815Z,5.17
2018-11-26T18:51:15.684Z,5.93
2018-11-26T18:54:21.250Z,5.07
2018-11-26T18:57:25.583Z,3.77
2018-11-26T19:03:50.113Z,6.13
2018-11-26T19:06:54.863Z,3.40
2018-11-26T19:10:00.953Z,5.73
2018-11-26T19:13:16.199Z,3.37
2018-11-26T19:16:26.265Z,2.60
2018-11-26T19:19:32.089Z,2.63
2018-11-26T19:22:37.334Z,4.20
2018-11-26T19:25:41.850Z,2.43
2018-11-26T19:28:46.312Z,5.23
2018-11-26T19:31:55.860Z,2.43
2018-11-26T19:34:55.321Z,3.70
2018-11-26T19:37:59.733Z,3.10
2018-11-26T19:41:04.203Z,3.67
2018-11-26T19:44:08.543Z,4.70
2018-11-26T19:47:12.955Z,3.87
2018-11-26T19:50:19.150Z,4.80
2018-11-26T19:53:24.172Z,3.10
2018-11-26T19:56:28.548Z,4.17
2018-11-26T19:59:34.570Z,4.60
2018-11-26T20:02:39.055Z,3.50
2018-11-26T20:06:13.494Z,7.00
2018-11-26T20:09:18.199Z,4.93
2018-11-26T20:12:22.629Z,3.90
2018-11-26T20:15:26.990Z,3.43
2018-11-26T20:18:31.399Z,4.00
2018-11-26T20:21:36.015Z,4.70
2018-11-26T20:24:40.413Z,4.87
2018-11-26T20:27:45.371Z,4.37
2018-11-26T20:30:49.655Z,3.83
2018-11-26T20:33:54.035Z,3.67
2018-11-26T20:36:58.439Z,3.93
2018-11-26T20:40:02.798Z,3.40
2018-11-26T20:43:10.179Z,4.20
2018-11-26T20:46:14.629Z,4.37
2018-11-26T20:49:20.800Z,4.73
2018-11-26T20:52:25.156Z,7.43
2018-11-26T20:55:29.533Z,5.07
2018-11-26T20:58:34.140Z,3.10
2018-11-26T21:01:39.010Z,3.10
2018-11-26T21:04:43.476Z,5.50
2018-11-26T21:07:47.962Z,4.13
2018-11-26T21:10:52.477Z,2.27
2018-11-26T21:13:56.945Z,3.53
2018-11-26T21:17:01.286Z,5.40
2018-11-26T21:20:12.554Z,2.93
2018-11-26T21:23:27.301Z,3.87
2018-11-26T21:26:31.631Z,5.03
2018-11-26T21:29:36.023Z,3.27
2018-11-26T21:32:40.487Z,4.20
2018-11-26T21:35:45.928Z,8.40
2018-11-26T21:38:50.278Z,4.30
2018-11-26T21:41:55.706Z,5.30
2018-11-26T21:45:00.007Z,7.33
2018-11-26T21:48:04.276Z,4.77
2018-11-26T21:51:08.554Z,3.07
2018-11-26T21:54:12.841Z,10.40
2018-11-26T21:57:17.123Z,8.87
2018-11-26T22:00:27.289Z,7.70
2018-11-26T22:03:31.618Z,4.70
2018-11-26T22:06:35.952Z,3.57
2018-11-26T22:09:40.269Z,6.10
2018-11-26T22:12:47.407Z,4.67
2018-11-26T22:15:51.730Z,5.63
2018-11-26T22:18:56.093Z,5.23
2018-11-26T22:22:00.419Z,5.17
2018-11-26T22:25:05.315Z,6.20
2018-11-26T22:28:11.155Z,6.20
2018-11-26T22:31:15.481Z,6.33
2018-11-26T22:34:19.772Z,5.80
2018-11-26T22:37:24.173Z,4.13
2018-11-26T22:40:28.586Z,7.63
2018-11-26T22:43:32.962Z,7.73
2018-11-26T22:46:37.381Z,8.83
2018-11-26T22:49:41.881Z,7.10
2018-11-26T22:52:46.217Z,10.90
2018-11-26T22:55:50.492Z,12.33
2018-11-26T22:58:54.825Z,25.53
2018-11-26T23:01:59.245Z,31.60
2018-11-26T23:05:03.556Z,17.13
2018-11-26T23:08:07.883Z,6.67
2018-11-26T23:11:13.430Z,4.67
2018-11-26T23:14:17.754Z,4.90
2018-11-26T23:17:22.092Z,6.87
2018-11-26T23:20:26.459Z,5.93
2018-11-26T23:23:30.784Z,3.30
2018-11-26T23:26:35.077Z,6.83
2018-11-26T23:29:39.392Z,7.40
2018-11-26T23:32:44.224Z,6.47
2018-11-26T23:35:48.836Z,5.87
2018-11-26T23:38:53.204Z,5.93
2018-11-26T23:41:57.523Z,3.80
2018-11-26T23:45:01.881Z,3.97
2018-11-26T23:48:07.063Z,5.73
2018-11-26T23:51:11.662Z,7.47
2018-11-26T23:54:16.501Z,3.80
2018-11-26T23:57:20.934Z,4.40
